Terminal Aerodrome Forecast
Issued by NWS

Home | Current Version | Previous Version | Text Only | Print | Product List | Glossary On
Versions: 1 2 3 4 5 6 7 8 9 10 11 12 13 14
000
FTUS45 KREV 041136
TAFMMH
TAF
KMMH 041136Z 0412/0512 VRB04KT P6SM FEW100 SCT180
     FM041700 11007KT P6SM SCT100 SCT180
     FM042000 20011G18KT P6SM SCT100 BKN180
     FM050100 30009G16KT P6SM SCT100 SCT180
     FM050600 VRB03KT P6SM SCT150=

USA.gov is the U.S. government's official web portal to all federal, state and local government web resources and services.